Serra Negra, Brazil
Current Conditions -  °F | °C
As of 8:00 PM on Thursday 27 Nov 2014 (Local Time) from SBKP Reporting Station
Few Clouds Few Clouds  
Wind Chill: 75°   Ceiling: Unl
Heat Index: 75°   Visibility: 6mi
Dew Point: 66°   Wind: 18mph
Humidity: 73%   Direction: 120°ESE
Pressure: 29.94"   Gusts: NA
Location:  22.61°S, 46.7°W
Report Text: SBKP 272200Z 12016KT 9999 FEW040 24/19 Q1014
Loading
Personal Weather Stations






























Interactive Weather Map New forecast layout! Learn more

10-Day Weather Forecast

Advertisements
Track Severe Weather on mobile